sim
Sign-in with your pilot id or email,
or register
Callsign
Passwort

Schedule Details

Flight Number: DLH2292 (1)
Departure: Munich Airport (EDDM) at 17:15
Arrival: Brussels Airport (EBBR) at 18:40
Route: Lufthansa Passenger Schedule. Enter filed route here before submitting Pirep.

Weather Information
Getting current METAR information for EDDM 231150Z 24006KT 220V320 9999 FEW010 BKN030 18/16 Q1010 TEMPO SHRA BKN020CB
Getting current METAR information for EBBR 231150Z 22011KT 190V250 9999 SCT036 22/12 Q1004 NOSIG

Schedule Frequency

Route Map